sensor_id;sensor_type;location;lat;lon;timestamp;P1;durP1;ratioP1;P2;durP2;ratioP2
8913;SDS011;4492;48.736;9.092;2022-10-26T00:00:34;2.10;;;1.90;;
8913;SDS011;4492;48.736;9.092;2022-10-26T00:02:59;4.63;;;2.10;;
8913;SDS011;4492;48.736;9.092;2022-10-26T00:05:25;2.70;;;2.13;;
8913;SDS011;4492;48.736;9.092;2022-10-26T00:07:50;3.93;;;2.50;;
8913;SDS011;4492;48.736;9.092;2022-10-26T00:10:16;3.83;;;2.03;;
8913;SDS011;4492;48.736;9.092;2022-10-26T00:12:42;4.93;;;2.33;;
8913;SDS011;4492;48.736;9.092;2022-10-26T00:15:07;5.07;;;3.00;;
8913;SDS011;4492;48.736;9.092;2022-10-26T00:17:33;4.57;;;2.17;;
8913;SDS011;4492;48.736;9.092;2022-10-26T00:19:59;5.27;;;2.70;;
8913;SDS011;4492;48.736;9.092;2022-10-26T00:22:26;5.40;;;2.50;;
8913;SDS011;4492;48.736;9.092;2022-10-26T00:24:51;5.63;;;2.70;;
8913;SDS011;4492;48.736;9.092;2022-10-26T00:27:17;3.73;;;2.43;;
8913;SDS011;4492;48.736;9.092;2022-10-26T00:29:43;5.33;;;2.30;;
8913;SDS011;4492;48.736;9.092;2022-10-26T00:32:08;5.13;;;3.17;;
8913;SDS011;4492;48.736;9.092;2022-10-26T00:34:34;4.07;;;2.10;;
8913;SDS011;4492;48.736;9.092;2022-10-26T00:37:00;6.60;;;2.40;;
8913;SDS011;4492;48.736;9.092;2022-10-26T00:39:25;3.23;;;2.07;;
8913;SDS011;4492;48.736;9.092;2022-10-26T00:41:51;4.23;;;2.53;;
8913;SDS011;4492;48.736;9.092;2022-10-26T00:47:10;4.47;;;2.20;;
8913;SDS011;4492;48.736;9.092;2022-10-26T00:49:42;5.17;;;1.97;;
8913;SDS011;4492;48.736;9.092;2022-10-26T00:52:11;7.40;;;2.10;;
8913;SDS011;4492;48.736;9.092;2022-10-26T00:54:38;4.00;;;1.60;;
8913;SDS011;4492;48.736;9.092;2022-10-26T00:57:04;2.00;;;1.70;;
8913;SDS011;4492;48.736;9.092;2022-10-26T00:59:30;2.17;;;1.67;;
8913;SDS011;4492;48.736;9.092;2022-10-26T01:01:57;4.33;;;1.50;;
8913;SDS011;4492;48.736;9.092;2022-10-26T01:04:23;2.83;;;1.37;;
8913;SDS011;4492;48.736;9.092;2022-10-26T01:06:49;1.47;;;1.37;;
8913;SDS011;4492;48.736;9.092;2022-10-26T01:09:16;4.93;;;1.73;;
8913;SDS011;4492;48.736;9.092;2022-10-26T01:11:43;2.07;;;1.47;;
8913;SDS011;4492;48.736;9.092;2022-10-26T01:14:08;6.07;;;2.30;;
8913;SDS011;4492;48.736;9.092;2022-10-26T01:32:47;3.63;;;1.70;;
8913;SDS011;4492;48.736;9.092;2022-10-26T01:35:33;3.87;;;1.97;;
8913;SDS011;4492;48.736;9.092;2022-10-26T01:38:07;4.63;;;1.70;;
8913;SDS011;4492;48.736;9.092;2022-10-26T01:43:25;3.53;;;1.67;;
8913;SDS011;4492;48.736;9.092;2022-10-26T01:45:56;2.03;;;1.50;;
8913;SDS011;4492;48.736;9.092;2022-10-26T01:48:22;3.90;;;1.77;;
8913;SDS011;4492;48.736;9.092;2022-10-26T01:50:52;3.63;;;1.53;;
8913;SDS011;4492;48.736;9.092;2022-10-26T01:53:18;1.83;;;1.50;;
8913;SDS011;4492;48.736;9.092;2022-10-26T01:55:49;2.43;;;1.80;;
8913;SDS011;4492;48.736;9.092;2022-10-26T02:01:05;3.33;;;1.60;;
8913;SDS011;4492;48.736;9.092;2022-10-26T02:07:01;5.10;;;1.90;;
8913;SDS011;4492;48.736;9.092;2022-10-26T02:11:39;2.97;;;1.70;;
8913;SDS011;4492;48.736;9.092;2022-10-26T02:19:56;2.10;;;1.70;;
8913;SDS011;4492;48.736;9.092;2022-10-26T02:22:46;5.33;;;2.03;;
8913;SDS011;4492;48.736;9.092;2022-10-26T02:25:19;2.33;;;1.70;;
8913;SDS011;4492;48.736;9.092;2022-10-26T02:27:50;2.37;;;1.53;;
8913;SDS011;4492;48.736;9.092;2022-10-26T02:30:20;2.60;;;1.87;;
8913;SDS011;4492;48.736;9.092;2022-10-26T02:32:50;4.03;;;1.93;;
8913;SDS011;4492;48.736;9.092;2022-10-26T02:35:20;3.97;;;2.10;;
8913;SDS011;4492;48.736;9.092;2022-10-26T02:37:50;3.57;;;1.80;;
8913;SDS011;4492;48.736;9.092;2022-10-26T02:40:19;2.53;;;1.80;;
8913;SDS011;4492;48.736;9.092;2022-10-26T02:42:49;2.27;;;1.60;;
8913;SDS011;4492;48.736;9.092;2022-10-26T02:45:18;4.90;;;1.80;;
8913;SDS011;4492;48.736;9.092;2022-10-26T02:47:47;3.67;;;1.90;;
8913;SDS011;4492;48.736;9.092;2022-10-26T02:50:13;4.00;;;1.90;;
8913;SDS011;4492;48.736;9.092;2022-10-26T02:55:21;5.03;;;2.17;;
8913;SDS011;4492;48.736;9.092;2022-10-26T02:58:11;3.03;;;2.23;;
8913;SDS011;4492;48.736;9.092;2022-10-26T03:00:42;3.63;;;2.37;;
8913;SDS011;4492;48.736;9.092;2022-10-26T03:03:09;1.97;;;1.77;;
8913;SDS011;4492;48.736;9.092;2022-10-26T03:05:35;4.87;;;2.20;;
8913;SDS011;4492;48.736;9.092;2022-10-26T03:08:01;3.13;;;1.93;;
8913;SDS011;4492;48.736;9.092;2022-10-26T03:10:27;3.87;;;2.40;;
8913;SDS011;4492;48.736;9.092;2022-10-26T03:12:53;4.13;;;2.07;;
8913;SDS011;4492;48.736;9.092;2022-10-26T03:15:19;5.00;;;2.00;;
8913;SDS011;4492;48.736;9.092;2022-10-26T03:17:45;3.07;;;2.23;;
8913;SDS011;4492;48.736;9.092;2022-10-26T03:20:11;3.70;;;2.10;;
8913;SDS011;4492;48.736;9.092;2022-10-26T03:22:37;2.63;;;2.10;;
8913;SDS011;4492;48.736;9.092;2022-10-26T03:25:02;4.47;;;2.00;;
8913;SDS011;4492;48.736;9.092;2022-10-26T03:27:28;5.13;;;2.37;;
8913;SDS011;4492;48.736;9.092;2022-10-26T03:29:54;5.53;;;2.37;;
8913;SDS011;4492;48.736;9.092;2022-10-26T03:32:19;4.03;;;2.30;;
8913;SDS011;4492;48.736;9.092;2022-10-26T03:34:45;3.67;;;2.27;;
8913;SDS011;4492;48.736;9.092;2022-10-26T03:37:12;5.83;;;2.37;;
8913;SDS011;4492;48.736;9.092;2022-10-26T03:39:38;8.33;;;2.33;;
8913;SDS011;4492;48.736;9.092;2022-10-26T03:42:03;4.23;;;1.80;;
8913;SDS011;4492;48.736;9.092;2022-10-26T03:44:29;2.57;;;1.67;;
8913;SDS011;4492;48.736;9.092;2022-10-26T03:46:55;3.50;;;2.30;;
8913;SDS011;4492;48.736;9.092;2022-10-26T03:49:20;2.70;;;2.07;;
8913;SDS011;4492;48.736;9.092;2022-10-26T03:51:46;4.67;;;1.80;;
8913;SDS011;4492;48.736;9.092;2022-10-26T03:54:11;3.17;;;1.67;;
8913;SDS011;4492;48.736;9.092;2022-10-26T03:56:37;3.57;;;1.97;;
8913;SDS011;4492;48.736;9.092;2022-10-26T03:59:02;7.00;;;2.03;;
8913;SDS011;4492;48.736;9.092;2022-10-26T04:01:28;3.37;;;1.53;;
8913;SDS011;4492;48.736;9.092;2022-10-26T04:03:54;2.00;;;1.80;;
8913;SDS011;4492;48.736;9.092;2022-10-26T04:06:19;5.43;;;1.90;;
8913;SDS011;4492;48.736;9.092;2022-10-26T04:08:45;3.30;;;1.70;;
8913;SDS011;4492;48.736;9.092;2022-10-26T04:11:10;2.00;;;1.50;;
8913;SDS011;4492;48.736;9.092;2022-10-26T04:13:36;2.60;;;1.50;;
8913;SDS011;4492;48.736;9.092;2022-10-26T04:16:02;5.17;;;1.97;;
8913;SDS011;4492;48.736;9.092;2022-10-26T04:18:28;3.30;;;1.53;;
8913;SDS011;4492;48.736;9.092;2022-10-26T04:20:54;1.77;;;1.40;;
8913;SDS011;4492;48.736;9.092;2022-10-26T04:23:19;3.93;;;1.93;;
8913;SDS011;4492;48.736;9.092;2022-10-26T04:25:46;2.20;;;1.70;;
8913;SDS011;4492;48.736;9.092;2022-10-26T04:28:12;4.30;;;1.73;;
8913;SDS011;4492;48.736;9.092;2022-10-26T04:30:38;2.80;;;1.77;;
8913;SDS011;4492;48.736;9.092;2022-10-26T04:33:04;4.63;;;1.90;;
8913;SDS011;4492;48.736;9.092;2022-10-26T04:35:30;2.93;;;1.73;;
8913;SDS011;4492;48.736;9.092;2022-10-26T04:38:00;6.57;;;1.90;;
8913;SDS011;4492;48.736;9.092;2022-10-26T04:40:27;4.50;;;1.47;;
8913;SDS011;4492;48.736;9.092;2022-10-26T04:42:54;4.63;;;1.70;;
8913;SDS011;4492;48.736;9.092;2022-10-26T04:45:20;3.43;;;1.60;;
8913;SDS011;4492;48.736;9.092;2022-10-26T04:47:46;3.60;;;1.80;;
8913;SDS011;4492;48.736;9.092;2022-10-26T04:50:12;4.33;;;2.10;;
8913;SDS011;4492;48.736;9.092;2022-10-26T04:52:38;4.63;;;1.83;;
8913;SDS011;4492;48.736;9.092;2022-10-26T04:55:04;6.70;;;1.90;;
8913;SDS011;4492;48.736;9.092;2022-10-26T04:57:33;2.80;;;1.73;;
8913;SDS011;4492;48.736;9.092;2022-10-26T05:00:00;4.60;;;1.77;;
8913;SDS011;4492;48.736;9.092;2022-10-26T05:02:26;3.43;;;1.73;;
8913;SDS011;4492;48.736;9.092;2022-10-26T05:04:53;6.50;;;2.07;;
8913;SDS011;4492;48.736;9.092;2022-10-26T05:07:18;5.17;;;1.60;;
8913;SDS011;4492;48.736;9.092;2022-10-26T05:09:44;3.13;;;1.70;;
8913;SDS011;4492;48.736;9.092;2022-10-26T05:12:10;3.20;;;1.90;;
8913;SDS011;4492;48.736;9.092;2022-10-26T05:14:35;5.60;;;1.70;;
8913;SDS011;4492;48.736;9.092;2022-10-26T05:17:01;2.60;;;1.73;;
8913;SDS011;4492;48.736;9.092;2022-10-26T05:19:27;4.37;;;2.43;;
8913;SDS011;4492;48.736;9.092;2022-10-26T05:21:52;4.57;;;1.83;;
8913;SDS011;4492;48.736;9.092;2022-10-26T05:24:18;4.03;;;1.97;;
8913;SDS011;4492;48.736;9.092;2022-10-26T05:26:44;5.40;;;1.90;;
8913;SDS011;4492;48.736;9.092;2022-10-26T05:29:09;1.97;;;1.60;;
8913;SDS011;4492;48.736;9.092;2022-10-26T05:31:35;5.13;;;1.93;;
8913;SDS011;4492;48.736;9.092;2022-10-26T05:34:01;4.43;;;1.90;;
8913;SDS011;4492;48.736;9.092;2022-10-26T05:36:26;3.93;;;1.80;;
8913;SDS011;4492;48.736;9.092;2022-10-26T05:38:52;3.97;;;2.03;;
8913;SDS011;4492;48.736;9.092;2022-10-26T05:41:17;4.10;;;2.10;;
8913;SDS011;4492;48.736;9.092;2022-10-26T05:43:45;8.57;;;2.23;;
8913;SDS011;4492;48.736;9.092;2022-10-26T05:46:11;1.87;;;1.63;;
8913;SDS011;4492;48.736;9.092;2022-10-26T05:48:36;3.37;;;2.13;;
8913;SDS011;4492;48.736;9.092;2022-10-26T05:51:02;4.73;;;2.03;;
8913;SDS011;4492;48.736;9.092;2022-10-26T05:53:27;4.17;;;1.90;;
8913;SDS011;4492;48.736;9.092;2022-10-26T05:55:53;6.43;;;1.60;;
8913;SDS011;4492;48.736;9.092;2022-10-26T05:58:20;2.80;;;1.60;;
8913;SDS011;4492;48.736;9.092;2022-10-26T06:03:40;3.73;;;1.80;;
8913;SDS011;4492;48.736;9.092;2022-10-26T06:06:29;8.80;;;1.87;;
8913;SDS011;4492;48.736;9.092;2022-10-26T06:09:02;1.90;;;1.80;;
8913;SDS011;4492;48.736;9.092;2022-10-26T06:11:28;3.37;;;1.67;;
8913;SDS011;4492;48.736;9.092;2022-10-26T06:13:54;4.07;;;1.97;;
8913;SDS011;4492;48.736;9.092;2022-10-26T06:19:02;2.57;;;1.63;;
8913;SDS011;4492;48.736;9.092;2022-10-26T06:30:05;2.60;;;1.70;;
8913;SDS011;4492;48.736;9.092;2022-10-26T06:32:35;5.97;;;1.70;;
8913;SDS011;4492;48.736;9.092;2022-10-26T06:37:54;3.53;;;1.70;;
8913;SDS011;4492;48.736;9.092;2022-10-26T06:40:23;7.03;;;1.83;;
8913;SDS011;4492;48.736;9.092;2022-10-26T06:42:50;4.70;;;2.00;;
8913;SDS011;4492;48.736;9.092;2022-10-26T06:45:16;3.70;;;2.00;;
8913;SDS011;4492;48.736;9.092;2022-10-26T06:47:44;6.53;;;2.03;;
8913;SDS011;4492;48.736;9.092;2022-10-26T06:53:05;6.63;;;1.83;;
8913;SDS011;4492;48.736;9.092;2022-10-26T06:55:44;3.47;;;1.80;;
8913;SDS011;4492;48.736;9.092;2022-10-26T06:58:19;4.97;;;2.10;;
8913;SDS011;4492;48.736;9.092;2022-10-26T07:00:48;4.60;;;1.90;;
8913;SDS011;4492;48.736;9.092;2022-10-26T07:03:14;3.77;;;1.80;;
8913;SDS011;4492;48.736;9.092;2022-10-26T07:05:40;4.20;;;2.00;;
8913;SDS011;4492;48.736;9.092;2022-10-26T07:08:07;5.33;;;2.00;;
8913;SDS011;4492;48.736;9.092;2022-10-26T07:10:33;4.87;;;2.27;;
8913;SDS011;4492;48.736;9.092;2022-10-26T07:13:06;3.07;;;2.17;;
8913;SDS011;4492;48.736;9.092;2022-10-26T07:15:32;4.50;;;2.10;;
8913;SDS011;4492;48.736;9.092;2022-10-26T07:17:58;3.70;;;1.90;;
8913;SDS011;4492;48.736;9.092;2022-10-26T07:20:24;5.43;;;1.93;;
8913;SDS011;4492;48.736;9.092;2022-10-26T07:22:56;4.50;;;1.97;;
8913;SDS011;4492;48.736;9.092;2022-10-26T07:25:23;4.07;;;2.07;;
8913;SDS011;4492;48.736;9.092;2022-10-26T07:27:49;6.20;;;2.27;;
8913;SDS011;4492;48.736;9.092;2022-10-26T07:30:15;6.13;;;2.03;;
8913;SDS011;4492;48.736;9.092;2022-10-26T07:32:41;3.53;;;2.40;;
8913;SDS011;4492;48.736;9.092;2022-10-26T07:35:07;5.07;;;2.00;;
8913;SDS011;4492;48.736;9.092;2022-10-26T07:37:32;2.30;;;2.07;;
8913;SDS011;4492;48.736;9.092;2022-10-26T07:39:58;2.93;;;1.93;;
8913;SDS011;4492;48.736;9.092;2022-10-26T07:42:23;3.53;;;2.13;;
8913;SDS011;4492;48.736;9.092;2022-10-26T07:44:49;2.83;;;2.07;;
8913;SDS011;4492;48.736;9.092;2022-10-26T07:47:15;5.80;;;2.20;;
8913;SDS011;4492;48.736;9.092;2022-10-26T07:49:40;4.57;;;2.50;;
8913;SDS011;4492;48.736;9.092;2022-10-26T07:52:06;5.50;;;2.10;;
8913;SDS011;4492;48.736;9.092;2022-10-26T07:54:31;3.17;;;2.37;;
8913;SDS011;4492;48.736;9.092;2022-10-26T07:56:57;5.87;;;2.77;;
8913;SDS011;4492;48.736;9.092;2022-10-26T07:59:23;4.33;;;2.23;;
8913;SDS011;4492;48.736;9.092;2022-10-26T08:01:48;2.83;;;2.27;;
8913;SDS011;4492;48.736;9.092;2022-10-26T08:04:14;4.73;;;2.57;;
8913;SDS011;4492;48.736;9.092;2022-10-26T08:06:40;2.90;;;2.60;;
8913;SDS011;4492;48.736;9.092;2022-10-26T08:09:06;7.23;;;2.70;;
8913;SDS011;4492;48.736;9.092;2022-10-26T08:11:31;3.30;;;2.90;;
8913;SDS011;4492;48.736;9.092;2022-10-26T08:13:57;4.07;;;2.30;;
8913;SDS011;4492;48.736;9.092;2022-10-26T08:16:23;3.30;;;2.40;;
8913;SDS011;4492;48.736;9.092;2022-10-26T08:18:49;7.43;;;2.30;;
8913;SDS011;4492;48.736;9.092;2022-10-26T08:21:15;3.70;;;2.00;;
8913;SDS011;4492;48.736;9.092;2022-10-26T08:23:41;6.93;;;2.57;;
8913;SDS011;4492;48.736;9.092;2022-10-26T08:26:07;5.00;;;2.80;;
8913;SDS011;4492;48.736;9.092;2022-10-26T08:28:35;6.40;;;2.40;;
8913;SDS011;4492;48.736;9.092;2022-10-26T08:31:01;3.63;;;2.63;;
8913;SDS011;4492;48.736;9.092;2022-10-26T08:33:27;4.70;;;2.20;;
8913;SDS011;4492;48.736;9.092;2022-10-26T08:35:57;5.60;;;2.07;;
8913;SDS011;4492;48.736;9.092;2022-10-26T08:38:24;5.13;;;2.60;;
8913;SDS011;4492;48.736;9.092;2022-10-26T08:40:51;6.47;;;2.60;;
8913;SDS011;4492;48.736;9.092;2022-10-26T08:45:48;5.57;;;2.30;;
8913;SDS011;4492;48.736;9.092;2022-10-26T08:48:36;4.27;;;2.50;;
8913;SDS011;4492;48.736;9.092;2022-10-26T08:51:12;4.50;;;2.00;;
8913;SDS011;4492;48.736;9.092;2022-10-26T08:54:31;3.57;;;2.27;;
8913;SDS011;4492;48.736;9.092;2022-10-26T08:56:44;3.60;;;2.00;;
8913;SDS011;4492;48.736;9.092;2022-10-26T09:01:50;5.53;;;2.40;;
8913;SDS011;4492;48.736;9.092;2022-10-26T09:04:16;7.93;;;2.27;;
8913;SDS011;4492;48.736;9.092;2022-10-26T09:09:51;5.77;;;2.00;;
8913;SDS011;4492;48.736;9.092;2022-10-26T09:25:59;5.50;;;2.27;;
8913;SDS011;4492;48.736;9.092;2022-10-26T09:28:27;5.60;;;2.10;;
8913;SDS011;4492;48.736;9.092;2022-10-26T09:30:58;4.77;;;1.97;;
8913;SDS011;4492;48.736;9.092;2022-10-26T09:33:25;4.67;;;2.03;;
8913;SDS011;4492;48.736;9.092;2022-10-26T09:35:56;5.57;;;2.50;;
8913;SDS011;4492;48.736;9.092;2022-10-26T09:38:31;7.17;;;2.20;;
8913;SDS011;4492;48.736;9.092;2022-10-26T09:41:02;3.13;;;1.73;;
8913;SDS011;4492;48.736;9.092;2022-10-26T09:43:54;5.40;;;2.00;;
8913;SDS011;4492;48.736;9.092;2022-10-26T09:46:24;3.90;;;1.77;;
8913;SDS011;4492;48.736;9.092;2022-10-26T09:48:58;6.57;;;2.00;;
8913;SDS011;4492;48.736;9.092;2022-10-26T09:51:29;3.93;;;2.10;;
8913;SDS011;4492;48.736;9.092;2022-10-26T09:53:57;6.23;;;2.10;;
8913;SDS011;4492;48.736;9.092;2022-10-26T09:56:24;4.50;;;2.50;;
8913;SDS011;4492;48.736;9.092;2022-10-26T09:58:53;5.37;;;2.07;;
8913;SDS011;4492;48.736;9.092;2022-10-26T10:06:44;7.97;;;2.30;;
8913;SDS011;4492;48.736;9.092;2022-10-26T10:09:21;6.10;;;2.73;;
8913;SDS011;4492;48.736;9.092;2022-10-26T10:11:49;2.60;;;2.20;;
8913;SDS011;4492;48.736;9.092;2022-10-26T10:14:19;3.77;;;2.00;;
8913;SDS011;4492;48.736;9.092;2022-10-26T10:16:50;10.87;;;2.10;;
8913;SDS011;4492;48.736;9.092;2022-10-26T10:19:21;4.73;;;2.40;;
8913;SDS011;4492;48.736;9.092;2022-10-26T10:21:53;4.33;;;1.97;;
8913;SDS011;4492;48.736;9.092;2022-10-26T10:27:02;5.57;;;2.00;;
8913;SDS011;4492;48.736;9.092;2022-10-26T10:29:28;5.40;;;2.10;;
8913;SDS011;4492;48.736;9.092;2022-10-26T10:31:59;5.03;;;2.07;;
8913;SDS011;4492;48.736;9.092;2022-10-26T10:34:30;8.63;;;2.50;;
8913;SDS011;4492;48.736;9.092;2022-10-26T10:36:57;5.13;;;1.93;;
8913;SDS011;4492;48.736;9.092;2022-10-26T10:39:35;3.43;;;2.00;;
8913;SDS011;4492;48.736;9.092;2022-10-26T10:42:04;7.27;;;2.30;;
8913;SDS011;4492;48.736;9.092;2022-10-26T10:44:37;6.60;;;2.40;;
8913;SDS011;4492;48.736;9.092;2022-10-26T10:47:04;4.33;;;1.90;;
8913;SDS011;4492;48.736;9.092;2022-10-26T10:49:31;3.23;;;1.90;;
8913;SDS011;4492;48.736;9.092;2022-10-26T10:51:58;5.77;;;2.10;;
8913;SDS011;4492;48.736;9.092;2022-10-26T10:54:34;6.97;;;2.20;;
8913;SDS011;4492;48.736;9.092;2022-10-26T11:00:22;9.83;;;1.77;;
8913;SDS011;4492;48.736;9.092;2022-10-26T11:05:59;7.27;;;1.97;;
8913;SDS011;4492;48.736;9.092;2022-10-26T11:08:43;4.77;;;1.70;;
8913;SDS011;4492;48.736;9.092;2022-10-26T11:11:30;6.33;;;1.70;;
8913;SDS011;4492;48.736;9.092;2022-10-26T11:14:04;3.43;;;1.80;;
8913;SDS011;4492;48.736;9.092;2022-10-26T11:16:41;5.67;;;2.10;;
8913;SDS011;4492;48.736;9.092;2022-10-26T11:19:28;6.80;;;1.70;;
8913;SDS011;4492;48.736;9.092;2022-10-26T11:22:04;6.47;;;2.07;;
8913;SDS011;4492;48.736;9.092;2022-10-26T11:24:40;5.77;;;1.73;;
8913;SDS011;4492;48.736;9.092;2022-10-26T11:27:17;3.57;;;1.77;;
8913;SDS011;4492;48.736;9.092;2022-10-26T11:35:18;4.40;;;1.90;;
8913;SDS011;4492;48.736;9.092;2022-10-26T11:38:02;5.50;;;2.30;;
8913;SDS011;4492;48.736;9.092;2022-10-26T11:40:44;4.77;;;2.00;;
8913;SDS011;4492;48.736;9.092;2022-10-26T11:46:41;6.70;;;1.90;;
8913;SDS011;4492;48.736;9.092;2022-10-26T11:55:32;5.83;;;2.07;;
8913;SDS011;4492;48.736;9.092;2022-10-26T11:57:58;3.03;;;1.50;;
8913;SDS011;4492;48.736;9.092;2022-10-26T12:00:23;4.00;;;1.37;;
8913;SDS011;4492;48.736;9.092;2022-10-26T12:03:01;5.93;;;1.97;;
8913;SDS011;4492;48.736;9.092;2022-10-26T12:08:09;5.47;;;1.60;;
8913;SDS011;4492;48.736;9.092;2022-10-26T12:10:41;5.03;;;1.90;;
8913;SDS011;4492;48.736;9.092;2022-10-26T12:13:21;6.70;;;1.83;;
8913;SDS011;4492;48.736;9.092;2022-10-26T12:15:58;4.17;;;2.20;;
8913;SDS011;4492;48.736;9.092;2022-10-26T12:18:37;5.67;;;1.70;;
8913;SDS011;4492;48.736;9.092;2022-10-26T12:21:04;7.17;;;1.43;;
8913;SDS011;4492;48.736;9.092;2022-10-26T12:23:38;4.70;;;1.43;;
8913;SDS011;4492;48.736;9.092;2022-10-26T12:29:11;4.37;;;1.83;;
8913;SDS011;4492;48.736;9.092;2022-10-26T12:31:48;3.30;;;1.70;;
8913;SDS011;4492;48.736;9.092;2022-10-26T12:34:15;2.93;;;1.60;;
8913;SDS011;4492;48.736;9.092;2022-10-26T12:44:37;4.53;;;1.77;;
8913;SDS011;4492;48.736;9.092;2022-10-26T12:47:05;3.47;;;1.50;;
8913;SDS011;4492;48.736;9.092;2022-10-26T12:52:29;3.90;;;1.77;;
8913;SDS011;4492;48.736;9.092;2022-10-26T12:58:21;5.63;;;1.70;;
8913;SDS011;4492;48.736;9.092;2022-10-26T13:06:20;4.40;;;1.93;;
8913;SDS011;4492;48.736;9.092;2022-10-26T13:08:47;3.70;;;1.70;;
8913;SDS011;4492;48.736;9.092;2022-10-26T13:11:17;7.30;;;2.00;;
8913;SDS011;4492;48.736;9.092;2022-10-26T13:13:55;5.40;;;1.97;;
8913;SDS011;4492;48.736;9.092;2022-10-26T13:16:23;4.27;;;1.80;;
8913;SDS011;4492;48.736;9.092;2022-10-26T13:18:51;3.97;;;1.90;;
8913;SDS011;4492;48.736;9.092;2022-10-26T13:21:18;3.57;;;1.60;;
8913;SDS011;4492;48.736;9.092;2022-10-26T13:23:46;3.67;;;1.80;;
8913;SDS011;4492;48.736;9.092;2022-10-26T13:26:26;5.20;;;1.90;;
8913;SDS011;4492;48.736;9.092;2022-10-26T13:28:56;6.27;;;1.87;;
8913;SDS011;4492;48.736;9.092;2022-10-26T13:39:29;4.57;;;1.67;;
8913;SDS011;4492;48.736;9.092;2022-10-26T13:42:17;8.80;;;1.87;;
8913;SDS011;4492;48.736;9.092;2022-10-26T13:44:47;4.20;;;1.43;;
8913;SDS011;4492;48.736;9.092;2022-10-26T13:47:24;4.80;;;1.97;;
8913;SDS011;4492;48.736;9.092;2022-10-26T13:50:13;4.03;;;1.93;;
8913;SDS011;4492;48.736;9.092;2022-10-26T13:52:42;5.00;;;1.63;;
8913;SDS011;4492;48.736;9.092;2022-10-26T13:55:31;3.97;;;1.83;;
8913;SDS011;4492;48.736;9.092;2022-10-26T13:58:13;4.83;;;2.03;;
8913;SDS011;4492;48.736;9.092;2022-10-26T14:01:03;4.57;;;1.93;;
8913;SDS011;4492;48.736;9.092;2022-10-26T14:03:40;2.70;;;1.57;;
8913;SDS011;4492;48.736;9.092;2022-10-26T14:06:09;3.47;;;1.50;;
8913;SDS011;4492;48.736;9.092;2022-10-26T14:08:40;5.80;;;1.70;;
8913;SDS011;4492;48.736;9.092;2022-10-26T14:11:09;6.03;;;1.93;;
8913;SDS011;4492;48.736;9.092;2022-10-26T14:13:39;6.10;;;1.60;;
8913;SDS011;4492;48.736;9.092;2022-10-26T14:16:06;6.03;;;2.13;;
8913;SDS011;4492;48.736;9.092;2022-10-26T14:18:33;8.87;;;2.07;;
8913;SDS011;4492;48.736;9.092;2022-10-26T14:21:00;4.60;;;1.50;;
8913;SDS011;4492;48.736;9.092;2022-10-26T14:23:27;6.57;;;2.10;;
8913;SDS011;4492;48.736;9.092;2022-10-26T14:25:58;4.73;;;1.60;;
8913;SDS011;4492;48.736;9.092;2022-10-26T14:28:24;2.50;;;1.67;;
8913;SDS011;4492;48.736;9.092;2022-10-26T14:31:11;4.23;;;1.60;;
8913;SDS011;4492;48.736;9.092;2022-10-26T14:33:44;5.20;;;2.00;;
8913;SDS011;4492;48.736;9.092;2022-10-26T14:36:09;5.27;;;1.60;;
8913;SDS011;4492;48.736;9.092;2022-10-26T14:38:38;3.13;;;1.80;;
8913;SDS011;4492;48.736;9.092;2022-10-26T14:41:11;3.80;;;1.67;;
8913;SDS011;4492;48.736;9.092;2022-10-26T14:43:40;6.57;;;1.93;;
8913;SDS011;4492;48.736;9.092;2022-10-26T14:46:10;5.27;;;1.80;;
8913;SDS011;4492;48.736;9.092;2022-10-26T14:48:51;6.87;;;1.83;;
8913;SDS011;4492;48.736;9.092;2022-10-26T14:51:28;3.53;;;2.03;;
8913;SDS011;4492;48.736;9.092;2022-10-26T14:53:58;3.33;;;1.50;;
8913;SDS011;4492;48.736;9.092;2022-10-26T14:59:08;3.20;;;1.77;;
8913;SDS011;4492;48.736;9.092;2022-10-26T15:01:57;4.13;;;1.77;;
8913;SDS011;4492;48.736;9.092;2022-10-26T15:04:55;6.23;;;1.80;;
8913;SDS011;4492;48.736;9.092;2022-10-26T15:07:23;4.87;;;2.07;;
8913;SDS011;4492;48.736;9.092;2022-10-26T15:09:57;3.00;;;1.73;;
8913;SDS011;4492;48.736;9.092;2022-10-26T15:12:31;3.60;;;1.80;;
8913;SDS011;4492;48.736;9.092;2022-10-26T15:15:20;5.37;;;1.67;;
8913;SDS011;4492;48.736;9.092;2022-10-26T15:17:50;2.87;;;1.53;;
8913;SDS011;4492;48.736;9.092;2022-10-26T15:20:21;4.10;;;1.40;;
8913;SDS011;4492;48.736;9.092;2022-10-26T15:22:49;3.87;;;1.53;;
8913;SDS011;4492;48.736;9.092;2022-10-26T15:25:18;4.77;;;1.60;;
8913;SDS011;4492;48.736;9.092;2022-10-26T15:27:47;3.33;;;1.77;;
8913;SDS011;4492;48.736;9.092;2022-10-26T15:30:16;2.60;;;1.53;;
8913;SDS011;4492;48.736;9.092;2022-10-26T15:32:43;4.83;;;1.40;;
8913;SDS011;4492;48.736;9.092;2022-10-26T15:37:43;3.63;;;1.43;;
8913;SDS011;4492;48.736;9.092;2022-10-26T15:40:12;5.60;;;1.83;;
8913;SDS011;4492;48.736;9.092;2022-10-26T15:42:39;4.33;;;1.37;;
8913;SDS011;4492;48.736;9.092;2022-10-26T15:47:58;2.57;;;1.30;;
8913;SDS011;4492;48.736;9.092;2022-10-26T15:50:40;6.50;;;1.53;;
8913;SDS011;4492;48.736;9.092;2022-10-26T15:53:07;3.90;;;1.70;;
8913;SDS011;4492;48.736;9.092;2022-10-26T15:55:37;3.87;;;1.60;;
8913;SDS011;4492;48.736;9.092;2022-10-26T15:58:03;3.03;;;1.40;;
8913;SDS011;4492;48.736;9.092;2022-10-26T16:00:28;6.83;;;1.70;;
8913;SDS011;4492;48.736;9.092;2022-10-26T16:02:54;2.27;;;1.43;;
8913;SDS011;4492;48.736;9.092;2022-10-26T16:05:20;4.00;;;1.83;;
8913;SDS011;4492;48.736;9.092;2022-10-26T16:07:45;3.03;;;1.73;;
8913;SDS011;4492;48.736;9.092;2022-10-26T16:10:22;5.03;;;2.90;;
8913;SDS011;4492;48.736;9.092;2022-10-26T16:12:49;3.70;;;2.20;;
8913;SDS011;4492;48.736;9.092;2022-10-26T16:15:15;4.13;;;2.27;;
8913;SDS011;4492;48.736;9.092;2022-10-26T16:17:43;3.43;;;2.07;;
8913;SDS011;4492;48.736;9.092;2022-10-26T16:20:11;2.47;;;1.80;;
8913;SDS011;4492;48.736;9.092;2022-10-26T16:22:39;3.07;;;2.20;;
8913;SDS011;4492;48.736;9.092;2022-10-26T16:25:10;4.37;;;1.80;;
8913;SDS011;4492;48.736;9.092;2022-10-26T16:27:36;3.83;;;1.73;;
8913;SDS011;4492;48.736;9.092;2022-10-26T16:30:02;5.47;;;2.40;;
8913;SDS011;4492;48.736;9.092;2022-10-26T16:32:28;4.43;;;2.17;;
8913;SDS011;4492;48.736;9.092;2022-10-26T16:34:53;3.73;;;2.20;;
8913;SDS011;4492;48.736;9.092;2022-10-26T16:37:19;3.97;;;2.20;;
8913;SDS011;4492;48.736;9.092;2022-10-26T16:39:45;5.63;;;2.87;;
8913;SDS011;4492;48.736;9.092;2022-10-26T16:42:10;6.87;;;3.23;;
8913;SDS011;4492;48.736;9.092;2022-10-26T16:44:36;7.43;;;3.27;;
8913;SDS011;4492;48.736;9.092;2022-10-26T16:47:02;4.13;;;2.50;;
8913;SDS011;4492;48.736;9.092;2022-10-26T16:49:27;6.03;;;2.63;;
8913;SDS011;4492;48.736;9.092;2022-10-26T16:51:53;4.37;;;2.13;;
8913;SDS011;4492;48.736;9.092;2022-10-26T16:54:18;3.73;;;2.43;;
8913;SDS011;4492;48.736;9.092;2022-10-26T16:56:44;2.93;;;2.10;;
8913;SDS011;4492;48.736;9.092;2022-10-26T16:59:09;4.30;;;2.20;;
8913;SDS011;4492;48.736;9.092;2022-10-26T17:01:35;4.53;;;2.13;;
8913;SDS011;4492;48.736;9.092;2022-10-26T17:04:00;6.57;;;2.27;;
8913;SDS011;4492;48.736;9.092;2022-10-26T17:06:27;6.20;;;2.00;;
8913;SDS011;4492;48.736;9.092;2022-10-26T17:08:53;6.00;;;2.20;;
8913;SDS011;4492;48.736;9.092;2022-10-26T17:11:19;4.27;;;2.33;;
8913;SDS011;4492;48.736;9.092;2022-10-26T17:13:46;6.63;;;2.83;;
8913;SDS011;4492;48.736;9.092;2022-10-26T17:16:13;7.03;;;2.40;;
8913;SDS011;4492;48.736;9.092;2022-10-26T17:18:43;5.17;;;2.37;;
8913;SDS011;4492;48.736;9.092;2022-10-26T17:21:11;6.47;;;2.13;;
8913;SDS011;4492;48.736;9.092;2022-10-26T17:23:38;5.57;;;2.27;;
8913;SDS011;4492;48.736;9.092;2022-10-26T17:26:04;4.13;;;2.43;;
8913;SDS011;4492;48.736;9.092;2022-10-26T17:28:31;8.97;;;3.17;;
8913;SDS011;4492;48.736;9.092;2022-10-26T17:31:15;11.10;;;3.13;;
8913;SDS011;4492;48.736;9.092;2022-10-26T17:33:42;8.40;;;2.63;;
8913;SDS011;4492;48.736;9.092;2022-10-26T17:36:10;5.87;;;3.17;;
8913;SDS011;4492;48.736;9.092;2022-10-26T17:38:38;8.10;;;3.23;;
8913;SDS011;4492;48.736;9.092;2022-10-26T17:41:05;6.70;;;4.13;;
8913;SDS011;4492;48.736;9.092;2022-10-26T17:43:33;9.10;;;2.93;;
8913;SDS011;4492;48.736;9.092;2022-10-26T17:46:01;6.03;;;2.83;;
8913;SDS011;4492;48.736;9.092;2022-10-26T17:48:29;9.20;;;3.20;;
8913;SDS011;4492;48.736;9.092;2022-10-26T17:51:02;8.13;;;3.40;;
8913;SDS011;4492;48.736;9.092;2022-10-26T17:53:29;3.67;;;2.57;;
8913;SDS011;4492;48.736;9.092;2022-10-26T17:56:05;8.83;;;2.80;;
8913;SDS011;4492;48.736;9.092;2022-10-26T17:58:34;6.47;;;2.53;;